createdAt,value
2023-06-29T00:08:45.296Z,20.2
2023-06-29T00:18:43.214Z,20.2
2023-06-29T00:28:43.408Z,20
2023-06-29T00:38:43.652Z,19.9
2023-06-29T00:58:44.001Z,19.9
2023-06-29T01:08:44.209Z,19.7
2023-06-29T01:18:44.396Z,19.7
2023-06-29T01:28:44.601Z,19.7
2023-06-29T01:38:44.804Z,19.8
2023-06-29T01:48:44.999Z,19.8
2023-06-29T01:58:45.180Z,19.8
2023-06-29T02:08:45.418Z,19.7
2023-06-29T02:18:45.578Z,19.8
2023-06-29T02:28:45.816Z,19.7
2023-06-29T02:38:45.978Z,19.7
2023-06-29T02:48:46.165Z,19.7
2023-06-29T02:58:46.374Z,19.7
2023-06-29T03:08:46.547Z,19.7
2023-06-29T03:18:46.752Z,19.6
2023-06-29T03:28:46.957Z,19.6
2023-06-29T03:38:47.152Z,19.6
2023-06-29T03:48:47.504Z,19.6
2023-06-29T03:58:47.546Z,19.6
2023-06-29T04:08:47.740Z,19.8
2023-06-29T04:18:48.009Z,19.9
2023-06-29T04:28:48.139Z,19.9
2023-06-29T04:38:48.360Z,19.9
2023-06-29T04:48:48.538Z,20
2023-06-29T04:58:48.727Z,20.1
2023-06-29T05:08:48.925Z,20.2
2023-06-29T05:18:49.139Z,20.2
2023-06-29T05:38:49.489Z,20.3
2023-06-29T05:48:49.712Z,20.4
2023-06-29T05:58:49.903Z,20.7
2023-06-29T06:08:50.103Z,21
2023-06-29T06:18:50.288Z,21
2023-06-29T06:28:50.495Z,21.2
2023-06-29T06:58:51.186Z,21.6
2023-06-29T07:18:51.466Z,21.6
2023-06-29T08:48:53.237Z,22.1
2023-06-29T08:58:53.435Z,22.2
2023-06-29T09:08:53.666Z,22.4
2023-06-29T09:18:53.826Z,22.3
2023-06-29T09:58:54.622Z,22.7
2023-06-29T10:08:54.806Z,23
2023-06-29T10:18:54.998Z,23.3
2023-06-29T10:28:55.200Z,23.6
2023-06-29T10:58:55.798Z,24.3
2023-06-29T11:08:55.990Z,25.2
2023-06-29T11:18:56.168Z,24.8
2023-06-29T11:28:56.407Z,24.7
2023-06-29T11:38:56.600Z,24.5
2023-06-29T11:48:56.779Z,24.3
2023-06-29T11:58:56.968Z,24.2
2023-06-29T12:08:57.210Z,24.1
2023-06-29T12:18:57.514Z,24.3
2023-06-29T12:28:57.543Z,24.3
2023-06-29T12:38:57.747Z,24.4
2023-06-29T12:48:57.944Z,24.1
2023-06-29T12:58:58.138Z,24.2
2023-06-29T13:08:58.332Z,24.5
2023-06-29T13:28:58.761Z,24.7
2023-06-29T13:38:58.911Z,25
2023-06-29T13:58:59.306Z,26.1
2023-06-29T14:08:59.502Z,26.2
2023-06-29T14:18:59.803Z,26
2023-06-29T14:28:59.887Z,25.9
2023-06-29T14:39:00.087Z,25.4
2023-06-29T14:49:00.285Z,25.4
2023-06-29T14:59:00.557Z,25.5
2023-06-29T15:09:00.673Z,25.4
2023-06-29T15:19:00.998Z,25.3
2023-06-29T15:29:01.066Z,25.1
2023-06-29T15:39:01.274Z,24.7
2023-06-29T15:49:01.471Z,24.7
2023-06-29T15:59:01.645Z,24.3
2023-06-29T16:19:02.034Z,23.9
2023-06-29T16:29:02.246Z,23.7
2023-06-29T16:39:02.443Z,23.6
2023-06-29T16:49:02.658Z,23.6
2023-06-29T16:59:02.821Z,23.6
2023-06-29T17:09:03.012Z,23.3
2023-06-29T17:19:03.259Z,23.3
2023-06-29T17:29:03.434Z,23.2
2023-06-29T17:39:03.600Z,22.9
2023-06-29T17:49:03.882Z,22.6
2023-06-29T18:09:04.197Z,22.4
2023-06-29T18:19:04.394Z,22.3
2023-06-29T18:29:04.584Z,22.2
2023-06-29T18:39:04.793Z,22
2023-06-29T18:49:04.986Z,21.8
2023-06-29T18:59:05.173Z,21.7
2023-06-29T19:09:05.373Z,21.6
2023-06-29T19:29:05.816Z,21.4
2023-06-29T19:39:05.977Z,21.4
2023-06-29T19:59:06.367Z,20.6
2023-06-29T20:09:06.567Z,19.6
2023-06-29T20:29:06.936Z,19.1
2023-06-29T20:39:07.140Z,19.1
2023-06-29T20:49:07.399Z,19
2023-06-29T20:59:07.619Z,18.9
2023-06-29T21:19:07.945Z,18.5
2023-06-29T21:29:17.892Z,18.2
2023-06-29T21:39:14.424Z,18
2023-06-29T21:49:08.606Z,17.8
2023-06-29T22:09:08.918Z,17.5
2023-06-29T22:19:09.169Z,17.4
2023-06-29T22:29:09.334Z,17.3
2023-06-29T22:39:09.507Z,17.2
2023-06-29T22:49:09.719Z,17.1
2023-06-29T22:59:09.913Z,16.8
2023-06-29T23:19:10.291Z,16.3
2023-06-29T23:29:10.510Z,16.2
2023-06-29T23:39:10.687Z,16.1
2023-06-29T23:49:10.892Z,16.1
2023-06-29T23:59:11.086Z,16.1
